createdAt,value
2019-01-27T00:00:06.380Z,0.00
2019-01-27T00:01:06.407Z,0.00
2019-01-27T00:02:06.434Z,0.00
2019-01-27T00:03:06.462Z,0.00
2019-01-27T00:04:06.495Z,0.00
2019-01-27T00:05:06.516Z,0.00
2019-01-27T00:06:06.541Z,0.00
2019-01-27T00:07:06.571Z,0.00
2019-01-27T00:08:13.300Z,0.00
2019-01-27T00:09:06.628Z,0.00
2019-01-27T00:10:06.650Z,0.00
2019-01-27T00:11:06.677Z,0.00
2019-01-27T00:12:06.704Z,0.00
2019-01-27T00:13:06.731Z,0.00
2019-01-27T00:14:06.759Z,0.00
2019-01-27T00:15:06.785Z,0.00
2019-01-27T00:16:06.813Z,0.00
2019-01-27T00:17:06.844Z,0.00
2019-01-27T00:18:06.867Z,0.00
2019-01-27T00:19:06.895Z,0.00
2019-01-27T00:20:06.919Z,0.00
2019-01-27T00:21:06.947Z,0.00
2019-01-27T00:22:06.977Z,0.00
2019-01-27T00:23:07.004Z,0.00
2019-01-27T00:24:07.027Z,0.00
2019-01-27T00:25:07.055Z,0.00
2019-01-27T00:26:07.078Z,0.00
2019-01-27T00:27:07.105Z,0.00
2019-01-27T00:28:07.133Z,0.00
2019-01-27T00:29:07.162Z,0.00
2019-01-27T00:30:07.187Z,0.00
2019-01-27T00:31:07.213Z,0.00
2019-01-27T00:32:07.239Z,0.00
2019-01-27T00:33:07.268Z,0.00
2019-01-27T00:34:07.290Z,0.00
2019-01-27T00:35:07.319Z,0.00
2019-01-27T00:36:07.349Z,0.00
2019-01-27T00:37:07.373Z,0.00
2019-01-27T00:38:07.399Z,0.00
2019-01-27T00:39:07.432Z,0.00
2019-01-27T00:40:07.453Z,0.00
2019-01-27T00:41:07.480Z,0.00
2019-01-27T00:42:07.506Z,0.00
2019-01-27T00:43:07.533Z,0.00
2019-01-27T00:44:07.560Z,0.00
2019-01-27T00:45:07.589Z,0.00
2019-01-27T00:46:07.613Z,0.00
2019-01-27T00:47:07.644Z,0.00
2019-01-27T00:48:07.667Z,0.00
2019-01-27T00:49:07.696Z,0.00
2019-01-27T00:50:07.722Z,0.00
2019-01-27T00:51:07.748Z,0.00
2019-01-27T00:52:07.777Z,0.00
2019-01-27T00:53:07.803Z,0.00
2019-01-27T00:54:07.828Z,0.00
2019-01-27T00:55:07.854Z,0.00
2019-01-27T00:56:07.883Z,0.00
2019-01-27T00:57:07.912Z,0.00
2019-01-27T00:58:07.936Z,0.00
2019-01-27T00:59:07.963Z,0.00
2019-01-27T01:00:07.990Z,0.00
2019-01-27T01:01:08.017Z,0.00
2019-01-27T01:02:08.046Z,0.00
2019-01-27T01:03:08.071Z,0.00
2019-01-27T01:04:08.099Z,0.00
2019-01-27T01:05:08.132Z,0.00
2019-01-27T01:06:08.152Z,0.00
2019-01-27T01:07:08.178Z,0.00
2019-01-27T01:08:08.206Z,0.00
2019-01-27T01:09:08.233Z,0.00
2019-01-27T01:10:08.258Z,0.00
2019-01-27T01:11:08.286Z,0.00
2019-01-27T01:12:08.312Z,0.00
2019-01-27T01:13:08.341Z,0.00
2019-01-27T01:14:08.367Z,0.00
2019-01-27T01:15:08.393Z,0.00
2019-01-27T01:16:08.421Z,0.00
2019-01-27T01:17:08.448Z,0.00
2019-01-27T01:18:08.475Z,0.00
2019-01-27T01:19:08.500Z,0.00
2019-01-27T01:20:08.527Z,0.00
2019-01-27T01:21:08.555Z,0.00
2019-01-27T01:22:08.581Z,0.00
2019-01-27T01:23:08.608Z,0.00
2019-01-27T01:24:08.636Z,0.00
2019-01-27T01:25:08.662Z,0.00
2019-01-27T01:26:08.687Z,0.00
2019-01-27T01:27:08.715Z,0.00
2019-01-27T01:28:08.741Z,0.00
2019-01-27T01:29:08.770Z,0.00
2019-01-27T01:30:08.796Z,0.00
2019-01-27T01:31:08.822Z,0.00
2019-01-27T01:32:08.850Z,0.00
2019-01-27T01:33:08.876Z,0.00
2019-01-27T01:34:08.903Z,0.00
2019-01-27T01:35:08.929Z,0.00
2019-01-27T01:36:08.956Z,0.00
2019-01-27T01:37:08.985Z,0.00
2019-01-27T01:38:09.012Z,0.00
2019-01-27T01:39:09.037Z,0.00
2019-01-27T01:40:09.065Z,0.00
2019-01-27T01:41:09.092Z,0.00
2019-01-27T01:42:09.119Z,0.00
2019-01-27T01:43:09.145Z,0.00
2019-01-27T01:44:09.172Z,0.00
2019-01-27T01:45:09.198Z,0.00
2019-01-27T01:46:09.224Z,0.00
2019-01-27T01:47:09.255Z,0.00
2019-01-27T01:48:09.278Z,0.00
2019-01-27T01:49:09.307Z,0.00
2019-01-27T01:50:09.335Z,0.00
2019-01-27T01:51:09.360Z,0.00
2019-01-27T01:52:09.388Z,0.00
2019-01-27T01:53:09.414Z,0.00
2019-01-27T01:54:09.440Z,0.00
2019-01-27T01:55:09.467Z,0.00
2019-01-27T01:56:09.494Z,0.00
2019-01-27T01:57:09.519Z,0.00
2019-01-27T01:58:09.546Z,0.00
2019-01-27T01:59:09.574Z,0.00
2019-01-27T02:00:09.601Z,0.00
2019-01-27T02:01:09.633Z,0.00
2019-01-27T02:02:09.654Z,0.00
2019-01-27T02:03:09.682Z,0.00
2019-01-27T02:04:09.708Z,0.00
2019-01-27T02:05:09.737Z,0.00
2019-01-27T02:06:09.762Z,0.00
2019-01-27T02:07:09.789Z,0.00
2019-01-27T02:08:09.817Z,0.00
2019-01-27T02:09:09.843Z,0.00
2019-01-27T02:10:09.868Z,0.00
2019-01-27T02:11:09.898Z,0.00
2019-01-27T02:12:09.923Z,0.00
2019-01-27T02:13:09.949Z,0.00
2019-01-27T02:14:09.974Z,0.00
2019-01-27T02:15:10.002Z,0.00
2019-01-27T02:16:10.032Z,0.00
2019-01-27T02:17:10.102Z,0.00
2019-01-27T02:18:10.083Z,0.00
2019-01-27T02:19:10.110Z,0.00
2019-01-27T02:20:10.137Z,0.00
2019-01-27T02:21:10.162Z,0.00
2019-01-27T02:22:10.190Z,0.00
2019-01-27T02:23:10.217Z,0.00
2019-01-27T02:24:10.244Z,0.00
2019-01-27T02:25:10.271Z,0.00
2019-01-27T02:26:10.298Z,0.00
2019-01-27T02:27:10.325Z,0.00
2019-01-27T02:28:10.353Z,0.00
2019-01-27T02:29:10.378Z,0.00
2019-01-27T02:30:10.480Z,0.00
2019-01-27T02:31:10.431Z,0.00
2019-01-27T02:32:10.459Z,0.00
2019-01-27T02:33:10.484Z,0.00
2019-01-27T02:34:10.511Z,0.00
2019-01-27T02:35:10.540Z,0.00
2019-01-27T02:36:10.565Z,0.00
2019-01-27T02:37:10.594Z,0.00
2019-01-27T02:38:10.619Z,0.00
2019-01-27T02:39:10.651Z,0.00
2019-01-27T02:40:10.680Z,0.00
2019-01-27T02:41:10.701Z,0.00
2019-01-27T02:42:10.727Z,0.00
2019-01-27T02:43:10.761Z,0.00
2019-01-27T02:44:10.783Z,0.00
2019-01-27T02:45:10.809Z,0.00
2019-01-27T02:46:10.838Z,0.00
2019-01-27T02:47:10.862Z,0.00
2019-01-27T02:48:10.888Z,0.00
2019-01-27T02:49:10.915Z,0.00
2019-01-27T02:50:10.942Z,0.00
2019-01-27T02:51:10.968Z,0.00
2019-01-27T02:52:10.997Z,0.00
2019-01-27T02:53:11.023Z,0.00
2019-01-27T02:54:11.050Z,0.00
2019-01-27T02:55:11.077Z,0.00
2019-01-27T02:56:11.105Z,0.00
2019-01-27T02:57:11.135Z,0.00
2019-01-27T02:58:11.159Z,0.00
2019-01-27T02:59:11.186Z,0.00
2019-01-27T03:00:11.214Z,0.00
2019-01-27T03:01:14.433Z,0.00
2019-01-27T03:02:11.267Z,0.00
2019-01-27T03:03:11.292Z,0.00
2019-01-27T03:04:11.321Z,0.00
2019-01-27T03:05:11.347Z,0.00
2019-01-27T03:06:11.379Z,0.00
2019-01-27T03:07:11.401Z,0.00
2019-01-27T03:08:11.427Z,0.00
2019-01-27T03:09:11.457Z,0.00
2019-01-27T03:10:11.480Z,0.00
2019-01-27T03:11:11.508Z,0.00
2019-01-27T03:12:11.536Z,0.00
2019-01-27T03:13:11.565Z,0.00
2019-01-27T03:14:11.590Z,0.00
2019-01-27T03:15:11.615Z,0.00
2019-01-27T03:16:11.644Z,0.00
2019-01-27T03:17:11.671Z,0.00
2019-01-27T03:18:11.698Z,0.00
2019-01-27T03:19:11.724Z,0.00
2019-01-27T03:20:11.752Z,0.00
2019-01-27T03:21:11.779Z,0.00
2019-01-27T03:22:11.804Z,0.00
2019-01-27T03:23:11.834Z,0.00
2019-01-27T03:24:11.861Z,0.00
2019-01-27T03:25:11.890Z,0.00
2019-01-27T03:26:11.913Z,0.00
2019-01-27T03:27:11.940Z,0.00
2019-01-27T03:28:11.970Z,0.00
2019-01-27T03:29:11.995Z,0.00
2019-01-27T03:30:12.022Z,0.00
2019-01-27T03:31:12.063Z,0.00
2019-01-27T03:32:12.077Z,0.00
2019-01-27T03:33:12.104Z,0.00
2019-01-27T03:34:12.137Z,0.00
2019-01-27T03:35:12.158Z,0.00
2019-01-27T03:36:12.186Z,0.00
2019-01-27T03:37:12.212Z,0.00
2019-01-27T03:38:12.238Z,0.00
2019-01-27T03:39:12.264Z,0.00
2019-01-27T03:40:12.292Z,0.00
2019-01-27T03:41:12.322Z,0.00
2019-01-27T03:42:12.345Z,0.00
2019-01-27T03:43:12.407Z,0.00
2019-01-27T03:44:12.399Z,0.00
2019-01-27T03:45:12.428Z,0.00
2019-01-27T03:46:12.453Z,0.00
2019-01-27T03:47:12.483Z,0.00
2019-01-27T03:48:12.508Z,0.00
2019-01-27T03:49:12.536Z,0.00
2019-01-27T03:50:12.564Z,0.00
2019-01-27T03:51:12.588Z,0.00
2019-01-27T03:52:12.616Z,0.00
2019-01-27T03:53:12.646Z,0.00
2019-01-27T03:54:12.675Z,0.00
2019-01-27T03:55:12.697Z,0.00
2019-01-27T03:56:12.724Z,0.00
2019-01-27T03:57:12.750Z,0.00
2019-01-27T03:58:12.787Z,0.00
2019-01-27T03:59:12.954Z,0.00
2019-01-27T04:00:12.834Z,0.00
2019-01-27T04:01:12.859Z,0.00
2019-01-27T04:02:12.885Z,0.00
2019-01-27T04:03:12.913Z,0.00
2019-01-27T04:04:12.941Z,0.00
2019-01-27T04:05:12.969Z,0.00
2019-01-27T04:06:12.997Z,0.00
2019-01-27T04:07:13.021Z,0.00
2019-01-27T04:08:13.050Z,0.00
2019-01-27T04:09:13.075Z,0.00
2019-01-27T04:10:13.102Z,0.00
2019-01-27T04:11:13.133Z,0.00
2019-01-27T04:12:13.157Z,0.00
2019-01-27T04:13:13.184Z,0.00
2019-01-27T04:14:13.212Z,0.00
2019-01-27T04:15:13.237Z,0.00
2019-01-27T04:16:13.264Z,0.00
2019-01-27T04:17:13.292Z,0.00
2019-01-27T04:18:13.320Z,0.00
2019-01-27T04:19:13.346Z,0.00
2019-01-27T04:20:13.383Z,0.00
2019-01-27T04:21:13.402Z,0.00
2019-01-27T04:22:13.425Z,0.00
2019-01-27T04:23:13.456Z,0.00
2019-01-27T04:24:13.482Z,0.00
2019-01-27T04:25:13.508Z,0.00
2019-01-27T04:26:13.534Z,0.00
2019-01-27T04:27:13.562Z,0.00
2019-01-27T04:28:13.594Z,0.00
2019-01-27T04:29:13.618Z,0.00
2019-01-27T04:30:13.644Z,0.00
2019-01-27T04:31:13.670Z,0.00
2019-01-27T04:32:13.699Z,0.00
2019-01-27T04:33:13.726Z,0.00
2019-01-27T04:34:13.753Z,0.00
2019-01-27T04:35:13.780Z,0.00
2019-01-27T04:36:13.807Z,0.00
2019-01-27T04:37:13.835Z,0.00
2019-01-27T04:38:13.861Z,0.00
2019-01-27T04:39:13.888Z,0.00
2019-01-27T04:40:13.916Z,0.00
2019-01-27T04:41:13.942Z,0.00
2019-01-27T04:42:13.968Z,0.00
2019-01-27T04:43:13.998Z,0.00
2019-01-27T04:44:14.027Z,0.00
2019-01-27T04:45:14.050Z,0.00
2019-01-27T04:46:14.079Z,0.00
2019-01-27T04:47:14.105Z,0.00
2019-01-27T04:48:14.133Z,0.00
2019-01-27T04:49:14.165Z,0.00
2019-01-27T04:50:14.187Z,0.00
2019-01-27T04:51:14.214Z,0.00
2019-01-27T04:52:14.242Z,0.00
2019-01-27T04:53:14.269Z,0.00
2019-01-27T04:54:14.298Z,0.00
2019-01-27T04:55:14.324Z,0.00
2019-01-27T04:56:14.354Z,0.00
2019-01-27T04:57:14.378Z,0.00
2019-01-27T04:58:14.406Z,0.00
2019-01-27T04:59:14.432Z,0.00
2019-01-27T05:00:14.461Z,0.00
2019-01-27T05:01:14.489Z,0.00
2019-01-27T05:02:14.565Z,0.00
2019-01-27T05:03:14.541Z,0.00
2019-01-27T05:04:16.381Z,0.00
2019-01-27T05:05:14.596Z,0.00
2019-01-27T05:06:14.627Z,0.00
2019-01-27T05:07:14.650Z,0.00
2019-01-27T05:08:14.679Z,0.00
2019-01-27T05:09:14.708Z,0.00
2019-01-27T05:10:14.733Z,0.00
2019-01-27T05:11:14.763Z,0.00
2019-01-27T05:12:14.788Z,0.00
2019-01-27T05:13:14.821Z,0.00
2019-01-27T05:14:14.842Z,0.00
2019-01-27T05:15:14.870Z,0.00
2019-01-27T05:16:14.897Z,0.00
2019-01-27T05:17:14.923Z,0.00
2019-01-27T05:18:14.953Z,0.00
2019-01-27T05:19:14.978Z,0.00
2019-01-27T05:20:15.007Z,0.00
2019-01-27T05:21:15.070Z,0.00
2019-01-27T05:22:15.060Z,0.00
2019-01-27T05:23:15.087Z,0.00
2019-01-27T05:24:15.123Z,0.00
2019-01-27T05:25:15.144Z,0.00
2019-01-27T05:26:15.170Z,0.00
2019-01-27T05:27:15.198Z,0.00
2019-01-27T05:28:15.225Z,0.00
2019-01-27T05:29:15.252Z,0.00
2019-01-27T05:30:15.279Z,0.00
2019-01-27T05:31:15.307Z,0.00
2019-01-27T05:32:15.334Z,0.00
2019-01-27T05:33:15.362Z,0.00
2019-01-27T05:34:15.388Z,0.00
2019-01-27T05:35:15.469Z,0.00
2019-01-27T05:36:15.442Z,0.00
2019-01-27T05:37:15.471Z,0.00
2019-01-27T05:38:15.497Z,0.00
2019-01-27T05:39:15.530Z,0.00
2019-01-27T05:40:15.553Z,0.00
2019-01-27T05:41:15.580Z,0.00
2019-01-27T05:42:15.607Z,0.00
2019-01-27T05:43:15.637Z,0.00
2019-01-27T05:44:15.662Z,0.00
2019-01-27T05:45:15.690Z,0.00
2019-01-27T05:46:15.717Z,0.00
2019-01-27T05:47:15.745Z,0.00
2019-01-27T05:48:15.772Z,0.00
2019-01-27T05:49:15.801Z,0.00
2019-01-27T05:50:15.828Z,0.00
2019-01-27T05:51:15.853Z,0.00
2019-01-27T05:52:15.882Z,0.00
2019-01-27T05:53:15.916Z,0.00
2019-01-27T05:54:15.937Z,0.00
2019-01-27T05:55:15.969Z,0.00
2019-01-27T05:56:15.990Z,0.00
2019-01-27T05:57:16.033Z,0.00
2019-01-27T05:58:16.046Z,0.00
2019-01-27T05:59:16.073Z,0.00
2019-01-27T06:00:16.100Z,0.00
2019-01-27T06:01:16.128Z,0.00
2019-01-27T06:02:16.154Z,0.00
2019-01-27T06:03:16.182Z,0.00
2019-01-27T06:04:16.469Z,0.00
2019-01-27T06:05:16.236Z,0.00
2019-01-27T06:06:16.263Z,0.00
2019-01-27T06:07:16.293Z,0.00
2019-01-27T06:08:16.318Z,0.00
2019-01-27T06:09:16.346Z,0.00
2019-01-27T06:10:16.373Z,0.00
2019-01-27T06:11:16.401Z,0.00
2019-01-27T06:12:16.428Z,0.00
2019-01-27T06:13:16.457Z,0.00
2019-01-27T06:14:16.482Z,0.00
2019-01-27T06:15:16.511Z,0.00
2019-01-27T06:16:16.537Z,0.00
2019-01-27T06:17:16.565Z,0.00
2019-01-27T06:18:16.592Z,0.00
2019-01-27T06:19:16.619Z,0.00
2019-01-27T06:20:16.647Z,0.00
2019-01-27T06:21:16.674Z,0.00
2019-01-27T06:22:16.699Z,0.00
2019-01-27T06:23:16.728Z,0.00
2019-01-27T06:24:16.758Z,0.00
2019-01-27T06:25:16.784Z,0.00
2019-01-27T06:26:16.810Z,0.00
2019-01-27T06:27:16.837Z,0.00
2019-01-27T06:28:16.914Z,0.00
2019-01-27T06:29:16.892Z,0.00
2019-01-27T06:30:16.920Z,0.00
2019-01-27T06:31:16.946Z,0.00
2019-01-27T06:32:16.974Z,0.00
2019-01-27T06:33:17.004Z,0.00
2019-01-27T06:34:17.028Z,0.00
2019-01-27T06:35:17.056Z,0.00
2019-01-27T06:36:17.084Z,0.00
2019-01-27T06:37:24.538Z,0.00
2019-01-27T06:38:17.137Z,0.00
2019-01-27T06:39:17.167Z,0.00
2019-01-27T06:40:17.193Z,0.00
2019-01-27T06:41:17.229Z,0.00
2019-01-27T06:42:17.247Z,4.00
2019-01-27T06:43:17.278Z,4.00
2019-01-27T06:44:17.304Z,0.00
2019-01-27T06:45:17.329Z,4.00
2019-01-27T06:46:17.356Z,4.00
2019-01-27T06:47:17.382Z,8.00
2019-01-27T06:48:17.412Z,8.00
2019-01-27T06:49:17.438Z,8.00
2019-01-27T06:50:17.465Z,8.00
2019-01-27T06:51:17.494Z,12.00
2019-01-27T06:52:17.521Z,16.00
2019-01-27T06:53:17.549Z,24.00
2019-01-27T06:54:17.575Z,28.00
2019-01-27T06:55:17.606Z,28.00
2019-01-27T06:56:17.629Z,28.00
2019-01-27T06:57:17.660Z,36.00
2019-01-27T06:58:17.687Z,48.00
2019-01-27T06:59:17.712Z,56.00
2019-01-27T07:00:17.738Z,52.00
2019-01-27T07:01:17.767Z,68.00
2019-01-27T07:02:17.794Z,60.00
2019-01-27T07:03:17.821Z,68.00
2019-01-27T07:04:17.849Z,84.00
2019-01-27T07:05:17.876Z,84.00
2019-01-27T07:06:17.902Z,100.00
2019-01-27T07:07:17.930Z,124.00
2019-01-27T07:08:17.959Z,136.00
2019-01-27T07:09:17.985Z,152.00
2019-01-27T07:10:18.012Z,156.00
2019-01-27T07:11:18.041Z,160.00
2019-01-27T07:12:18.067Z,176.00
2019-01-27T07:13:18.094Z,212.00
2019-01-27T07:14:18.121Z,272.00
2019-01-27T07:15:18.149Z,356.00
2019-01-27T07:16:18.177Z,424.00
2019-01-27T07:17:18.203Z,488.00
2019-01-27T07:18:18.229Z,544.00
2019-01-27T07:19:18.258Z,576.00
2019-01-27T07:20:18.286Z,592.00
2019-01-27T07:21:18.313Z,640.00
2019-01-27T07:22:18.339Z,668.00
2019-01-27T07:23:18.367Z,664.00
2019-01-27T07:24:18.396Z,716.00
2019-01-27T07:25:18.421Z,816.00
2019-01-27T07:26:18.448Z,964.00
2019-01-27T07:27:18.476Z,1104.00
2019-01-27T07:28:18.507Z,1224.00
2019-01-27T07:29:18.530Z,1276.00
2019-01-27T07:30:18.557Z,1268.00
2019-01-27T07:31:18.935Z,1196.00
2019-01-27T07:32:18.613Z,1020.00
2019-01-27T07:33:18.640Z,996.00
2019-01-27T07:34:18.667Z,1188.00
2019-01-27T07:35:18.699Z,1428.00
2019-01-27T07:36:18.723Z,1400.00
2019-01-27T07:37:18.751Z,1352.00
2019-01-27T07:38:18.776Z,1452.00
2019-01-27T07:39:18.804Z,1588.00
2019-01-27T07:40:18.831Z,1508.00
2019-01-27T07:41:18.859Z,1532.00
2019-01-27T07:42:18.889Z,1536.00
2019-01-27T07:43:18.914Z,1728.00
2019-01-27T07:44:18.942Z,2344.00
2019-01-27T07:45:18.970Z,2768.00
2019-01-27T07:46:18.995Z,2920.00
2019-01-27T07:47:19.024Z,2880.00
2019-01-27T07:48:19.052Z,2808.00
2019-01-27T07:49:19.078Z,2264.00
2019-01-27T07:50:19.107Z,2652.00
2019-01-27T07:51:19.134Z,2672.00
2019-01-27T07:52:19.162Z,2636.00
2019-01-27T07:53:19.189Z,3152.00
2019-01-27T07:54:19.217Z,3916.00
2019-01-27T07:55:19.245Z,3800.00
2019-01-27T07:56:19.272Z,4732.00
2019-01-27T07:57:19.300Z,4544.00
2019-01-27T07:58:19.327Z,5624.00
2019-01-27T07:59:19.355Z,6628.00
2019-01-27T08:00:19.384Z,8408.00
2019-01-27T08:01:19.413Z,8596.00
2019-01-27T08:02:19.439Z,8668.00
2019-01-27T08:03:19.468Z,7276.00
2019-01-27T08:04:19.495Z,6516.00
2019-01-27T08:05:19.524Z,6332.00
2019-01-27T08:06:19.552Z,5408.00
2019-01-27T08:07:19.582Z,9008.00
2019-01-27T08:08:19.614Z,6864.00
2019-01-27T08:09:19.644Z,6412.00
2019-01-27T08:10:19.667Z,4044.00
2019-01-27T08:11:19.697Z,2760.00
2019-01-27T08:12:19.725Z,2784.00
2019-01-27T08:13:19.756Z,2624.00
2019-01-27T08:14:19.782Z,2496.00
2019-01-27T08:15:19.812Z,2624.00
2019-01-27T08:16:19.841Z,2472.00
2019-01-27T08:17:19.871Z,2224.00
2019-01-27T08:18:19.900Z,2380.00
2019-01-27T08:19:19.929Z,1852.00
2019-01-27T08:20:19.957Z,1808.00
2019-01-27T08:21:19.987Z,1868.00
2019-01-27T08:22:20.015Z,1868.00
2019-01-27T08:23:20.044Z,1672.00
2019-01-27T08:24:20.073Z,1788.00
2019-01-27T08:25:20.102Z,1488.00
2019-01-27T08:26:20.130Z,1344.00
2019-01-27T08:27:20.159Z,1508.00
2019-01-27T08:28:20.187Z,1796.00
2019-01-27T08:29:20.216Z,2096.00
2019-01-27T08:30:20.244Z,1952.00
2019-01-27T08:31:20.274Z,1872.00
2019-01-27T08:32:20.303Z,2432.00
2019-01-27T08:33:20.330Z,2808.00
2019-01-27T08:34:20.358Z,2420.00
2019-01-27T08:35:20.387Z,2700.00
2019-01-27T08:36:20.417Z,6556.00
2019-01-27T08:37:20.444Z,2060.00
2019-01-27T08:38:20.475Z,2572.00
2019-01-27T08:39:20.500Z,3012.00
2019-01-27T08:40:20.530Z,3536.00
2019-01-27T08:41:20.558Z,3668.00
2019-01-27T08:42:20.588Z,3408.00
2019-01-27T08:43:20.615Z,3544.00
2019-01-27T08:44:20.645Z,3632.00
2019-01-27T08:45:20.673Z,4764.00
2019-01-27T08:46:20.700Z,3476.00
2019-01-27T08:47:20.729Z,2972.00
2019-01-27T08:48:20.761Z,2660.00
2019-01-27T08:49:20.785Z,2360.00
2019-01-27T08:50:20.816Z,2260.00
2019-01-27T08:51:20.841Z,2184.00
2019-01-27T08:52:20.869Z,2052.00
2019-01-27T08:53:20.902Z,2268.00
2019-01-27T08:54:20.926Z,2592.00
2019-01-27T08:55:20.955Z,2488.00
2019-01-27T08:56:20.983Z,2332.00
2019-01-27T08:57:21.012Z,2360.00
2019-01-27T08:58:21.046Z,2348.00
2019-01-27T08:59:21.073Z,2256.00
2019-01-27T09:00:21.098Z,2064.00
2019-01-27T09:01:21.125Z,2228.00
2019-01-27T09:02:21.153Z,2508.00
2019-01-27T09:03:21.183Z,2700.00
2019-01-27T09:04:21.211Z,2692.00
2019-01-27T09:05:21.241Z,2692.00
2019-01-27T09:06:21.266Z,2908.00
2019-01-27T09:07:21.295Z,3520.00
2019-01-27T09:08:21.323Z,4140.00
2019-01-27T09:09:21.353Z,4832.00
2019-01-27T09:10:21.379Z,5192.00
2019-01-27T09:11:21.407Z,4216.00
2019-01-27T09:12:21.437Z,3984.00
2019-01-27T09:13:21.464Z,4812.00
2019-01-27T09:14:21.493Z,4756.00
2019-01-27T09:15:21.521Z,4660.00
2019-01-27T09:16:21.549Z,4844.00
2019-01-27T09:17:21.578Z,5936.00
2019-01-27T09:18:21.605Z,5964.00
2019-01-27T09:19:21.636Z,5936.00
2019-01-27T09:20:21.662Z,4904.00
2019-01-27T09:21:21.693Z,4232.00
2019-01-27T09:22:21.724Z,3580.00
2019-01-27T09:23:21.747Z,3156.00
2019-01-27T09:24:21.777Z,2664.00
2019-01-27T09:25:21.805Z,2712.00
2019-01-27T09:26:21.857Z,3540.00
2019-01-27T09:27:21.860Z,3760.00
2019-01-27T09:28:21.889Z,4348.00
2019-01-27T09:29:21.918Z,4468.00
2019-01-27T09:30:21.945Z,4328.00
2019-01-27T09:31:21.973Z,4488.00
2019-01-27T09:32:22.003Z,5148.00
2019-01-27T09:33:22.033Z,5884.00
2019-01-27T09:34:22.058Z,6632.00
2019-01-27T09:35:22.088Z,7316.00
2019-01-27T09:36:22.117Z,10040.00
2019-01-27T09:37:22.145Z,12340.00
2019-01-27T09:38:22.174Z,12940.00
2019-01-27T09:39:22.203Z,12612.00
2019-01-27T09:40:22.231Z,12604.00
2019-01-27T09:41:22.260Z,15572.00
2019-01-27T09:42:22.287Z,13248.00
2019-01-27T09:43:22.316Z,20672.00
2019-01-27T09:44:22.346Z,10676.00
2019-01-27T09:45:22.376Z,16544.00
2019-01-27T09:46:22.404Z,25024.00
2019-01-27T09:47:22.434Z,9456.00
2019-01-27T09:48:22.463Z,12428.00
2019-01-27T09:49:22.493Z,23296.00
2019-01-27T09:50:22.521Z,19328.00
2019-01-27T09:51:22.553Z,30432.00
2019-01-27T09:52:22.583Z,24768.00
2019-01-27T09:53:22.612Z,11876.00
2019-01-27T09:54:22.643Z,13048.00
2019-01-27T09:55:22.671Z,13384.00
2019-01-27T09:56:22.702Z,22272.00
2019-01-27T09:57:22.734Z,35200.00
2019-01-27T09:58:22.763Z,40896.00
2019-01-27T09:59:22.794Z,46912.00
2019-01-27T10:00:22.825Z,20672.00
2019-01-27T10:01:22.857Z,26272.00
2019-01-27T10:02:22.888Z,51712.00
2019-01-27T10:03:22.920Z,53056.00
2019-01-27T10:04:22.955Z,59104.00
2019-01-27T10:05:22.987Z,65120.00
2019-01-27T10:06:23.019Z,65664.00
2019-01-27T10:07:23.055Z,44000.00
2019-01-27T10:08:23.089Z,18464.00
2019-01-27T10:09:23.124Z,22560.00
2019-01-27T10:10:23.162Z,28288.00
2019-01-27T10:11:26.514Z,22176.00
2019-01-27T10:12:23.228Z,40064.00
2019-01-27T10:13:23.263Z,17024.00
2019-01-27T10:14:23.298Z,12216.00
2019-01-27T10:15:23.333Z,9776.00
2019-01-27T10:16:23.369Z,7356.00
2019-01-27T10:17:23.403Z,6260.00
2019-01-27T10:18:24.843Z,6236.00
2019-01-27T10:19:23.473Z,6416.00
2019-01-27T10:20:23.507Z,6084.00
2019-01-27T10:21:23.540Z,5536.00
2019-01-27T10:22:23.574Z,5672.00
2019-01-27T10:23:23.609Z,5628.00
2019-01-27T10:24:23.642Z,5968.00
2019-01-27T10:25:23.677Z,6032.00
2019-01-27T10:26:23.709Z,6144.00
2019-01-27T10:27:23.742Z,6892.00
2019-01-27T10:28:23.773Z,6960.00
2019-01-27T10:29:23.807Z,8368.00
2019-01-27T10:30:23.838Z,7904.00
2019-01-27T10:31:23.875Z,7008.00
2019-01-27T10:32:23.905Z,4828.00
2019-01-27T10:33:23.936Z,5084.00
2019-01-27T10:34:23.967Z,5404.00
2019-01-27T10:35:23.999Z,5520.00
2019-01-27T10:36:24.034Z,5532.00
2019-01-27T10:37:24.071Z,6068.00
2019-01-27T10:38:24.097Z,5824.00
2019-01-27T10:39:24.125Z,5304.00
2019-01-27T10:40:24.161Z,5080.00
2019-01-27T10:41:24.189Z,5036.00
2019-01-27T10:42:24.219Z,5260.00
2019-01-27T10:43:24.251Z,5936.00
2019-01-27T10:44:24.282Z,6604.00
2019-01-27T10:45:24.313Z,8256.00
2019-01-27T10:46:24.344Z,8992.00
2019-01-27T10:47:24.375Z,8560.00
2019-01-27T10:48:24.407Z,8748.00
2019-01-27T10:49:24.439Z,10404.00
2019-01-27T10:50:24.469Z,11204.00
2019-01-27T10:51:24.497Z,11444.00
2019-01-27T10:52:24.613Z,10740.00
2019-01-27T10:53:25.512Z,9444.00
2019-01-27T10:54:24.588Z,9336.00
2019-01-27T10:55:24.620Z,9176.00
2019-01-27T10:56:24.653Z,7824.00
2019-01-27T10:57:24.682Z,7004.00
2019-01-27T10:58:24.711Z,6188.00
2019-01-27T10:59:24.743Z,4864.00
2019-01-27T11:00:24.777Z,4072.00
2019-01-27T11:01:24.804Z,3560.00
2019-01-27T11:02:24.836Z,3404.00
2019-01-27T11:03:24.865Z,3224.00
2019-01-27T11:04:24.895Z,3028.00
2019-01-27T11:05:24.976Z,2556.00
2019-01-27T11:06:24.957Z,2100.00
2019-01-27T11:07:24.988Z,2012.00
2019-01-27T11:08:25.018Z,2024.00
2019-01-27T11:09:25.049Z,2280.00
2019-01-27T11:10:25.078Z,2812.00
2019-01-27T11:11:25.109Z,3292.00
2019-01-27T11:12:25.138Z,4688.00
2019-01-27T11:13:25.169Z,5172.00
2019-01-27T11:14:25.198Z,6820.00
2019-01-27T11:15:25.227Z,11172.00
2019-01-27T11:16:25.260Z,13852.00
2019-01-27T11:17:25.290Z,13000.00
2019-01-27T11:18:25.318Z,11000.00
2019-01-27T11:19:25.349Z,10132.00
2019-01-27T11:20:25.417Z,10572.00
2019-01-27T11:21:25.411Z,10560.00
2019-01-27T11:22:25.438Z,9748.00
2019-01-27T11:23:25.469Z,8508.00
2019-01-27T11:24:25.499Z,7536.00
2019-01-27T11:25:25.534Z,6624.00
2019-01-27T11:26:25.559Z,6384.00
2019-01-27T11:27:32.688Z,6024.00
2019-01-27T11:28:25.620Z,5044.00
2019-01-27T11:29:25.650Z,4504.00
2019-01-27T11:30:25.680Z,4540.00
2019-01-27T11:31:25.710Z,4636.00
2019-01-27T11:32:25.743Z,4464.00
2019-01-27T11:33:25.770Z,3796.00
2019-01-27T11:34:25.800Z,3460.00
2019-01-27T11:35:25.831Z,3380.00
2019-01-27T11:36:25.860Z,3704.00
2019-01-27T11:37:25.891Z,3420.00
2019-01-27T11:38:25.923Z,3448.00
2019-01-27T11:39:25.951Z,3392.00
2019-01-27T11:40:25.983Z,3304.00
2019-01-27T11:41:26.011Z,2912.00
2019-01-27T11:42:26.042Z,2756.00
2019-01-27T11:43:26.069Z,3156.00
2019-01-27T11:44:26.101Z,3344.00
2019-01-27T11:45:26.129Z,3508.00
2019-01-27T11:46:26.159Z,3492.00
2019-01-27T11:47:26.187Z,3852.00
2019-01-27T11:48:26.219Z,3348.00
2019-01-27T11:49:26.247Z,3204.00
2019-01-27T11:50:26.279Z,3552.00
2019-01-27T11:51:26.355Z,3932.00
2019-01-27T11:52:26.336Z,4288.00
2019-01-27T11:53:26.370Z,4000.00
2019-01-27T11:54:26.397Z,5188.00
2019-01-27T11:55:26.423Z,7132.00
2019-01-27T11:56:26.453Z,6896.00
2019-01-27T11:57:26.480Z,6056.00
2019-01-27T11:58:26.510Z,5448.00
2019-01-27T11:59:26.542Z,5872.00
2019-01-27T12:00:26.569Z,5416.00
2019-01-27T12:01:26.600Z,4264.00
2019-01-27T12:02:26.628Z,3468.00
2019-01-27T12:03:26.657Z,3436.00
2019-01-27T12:04:26.689Z,4320.00
2019-01-27T12:05:26.717Z,5492.00
2019-01-27T12:06:26.746Z,5864.00
2019-01-27T12:07:26.776Z,5240.00
2019-01-27T12:08:28.034Z,4336.00
2019-01-27T12:09:26.834Z,4344.00
2019-01-27T12:10:26.862Z,4776.00
2019-01-27T12:11:26.893Z,4576.00
2019-01-27T12:12:26.922Z,4284.00
2019-01-27T12:13:26.950Z,5352.00
2019-01-27T12:14:26.982Z,5432.00
2019-01-27T12:15:27.008Z,5964.00
2019-01-27T12:16:27.039Z,5844.00
2019-01-27T12:17:27.067Z,7068.00
2019-01-27T12:18:27.095Z,9056.00
2019-01-27T12:19:27.125Z,10660.00
2019-01-27T12:20:27.154Z,10616.00
2019-01-27T12:21:27.184Z,8228.00
2019-01-27T12:22:27.236Z,8160.00
2019-01-27T12:23:27.241Z,7012.00
2019-01-27T12:24:27.272Z,4952.00
2019-01-27T12:25:27.300Z,4364.00
2019-01-27T12:26:27.330Z,4452.00
2019-01-27T12:27:27.360Z,4484.00
2019-01-27T12:28:27.389Z,5108.00
2019-01-27T12:29:27.419Z,5572.00
2019-01-27T12:30:27.448Z,5804.00
2019-01-27T12:31:27.478Z,6204.00
2019-01-27T12:32:27.508Z,6128.00
2019-01-27T12:33:27.537Z,4984.00
2019-01-27T12:34:27.568Z,3700.00
2019-01-27T12:35:27.596Z,3244.00
2019-01-27T12:36:27.626Z,3732.00
2019-01-27T12:37:27.657Z,5404.00
2019-01-27T12:38:27.685Z,4636.00
2019-01-27T12:39:27.716Z,5268.00
2019-01-27T12:40:27.743Z,6716.00
2019-01-27T12:41:27.825Z,8148.00
2019-01-27T12:42:27.805Z,8016.00
2019-01-27T12:43:27.835Z,8488.00